M I D A S
Marine Information and Data Acquisition System
Tripno 2238 of the Zeeleeuw from 2011-09-09 06:38:40 to 2011-09-09 13:12:56
Back to CruiseResearch ActivitiesStationsMapUnderway DataData graphs

EquipmentUnitsComment
TimeDGPSUTC
LatitudeDGPSDM.mWGS84
LongitudeDGPSDM.mWGS84
TemperatureSBE03/SBE38deg celciusITS90
ConductivitySBE21S/mITS90
SalinitySBE21 Practical Salinity Units
ChlorophylAChelsea fluorimeterg/lCalibrated in Aceton
Missing or incorrect values are displayed as -999
Sea surface data collected by the RV Zeeleeuw from 2011-09-09 06:28:33 to 2011-09-09 13:12:09
Time Latitude Longitude Temperature Conductivity Salinity ChlorophylA
2011-09-09 06:29:41 51°13.643 2°55.984 19.3364 0.008886 0.0508 -3.020363
2011-09-09 06:30:42 51°13.672 2°55.877 19.3572 0.008886 0.050799 -3.020363
2011-09-09 06:31:42 51°13.724 2°55.771 19.3701 0.008886 0.050799 -3.020363
2011-09-09 06:32:42 51°13.792 2°55.67 19.3755 0.008886 0.050799 -3.020363
2011-09-09 06:33:42 51°13.871 2°55.605 19.3888 0.008886 0.050799 -3.020363
2011-09-09 06:34:42 51°13.942 2°55.602 19.3924 0.008886 0.050798 -3.020363
2011-09-09 06:35:40 51°13.975 2°55.616 19.43 0.008886 0.050798 -3.020363
2011-09-09 06:36:40 51°13.98 2°55.572 19.3834 0.008886 0.050797 -3.020363
2011-09-09 06:37:39 51°14.03 2°55.518 19.4294 0.008886 0.050796 -3.020363
2011-09-09 06:38:39 51°14.107 2°55.455 19.4311 0.008886 0.050796 -3.020363
2011-09-09 06:39:39 51°14.2 2°55.376 19.436 0.008886 0.050794 -3.020363
2011-09-09 06:40:39 51°14.307 2°55.277 19.444 0.008886 0.050794 -3.020363
2011-09-09 06:41:39 51°14.443 2°55.146 19.453 0.008886 0.050793 -3.020363
2011-09-09 06:42:39 51°14.597 2°54.966 19.3308 0.008886 0.050793 -3.020363
2011-09-09 06:43:39 51°14.76 2°54.761 19.2792 0.008886 0.050793 -3.020363
2011-09-09 06:44:39 51°14.925 2°54.562 19.3042 0.008886 0.050793 -3.020363
2011-09-09 06:45:39 51°15.083 2°54.353 19.3264 0.008886 0.050793 -3.020363
2011-09-09 06:46:39 51°15.244 2°54.153 19.3436 0.008886 0.050792 -3.020363
2011-09-09 06:47:39 51°15.405 2°53.949 19.3667 0.008886 0.050793 -3.020363
2011-09-09 06:48:39 51°15.57 2°53.752 19.3915 0.008886 0.050792 -3.020363
2011-09-09 06:49:39 51°15.737 2°53.564 19.4171 0.008886 0.050792 -3.020363
2011-09-09 06:50:39 51°15.914 2°53.404 19.4373 0.008886 0.050791 -3.020363
2011-09-09 06:51:39 51°16.096 2°53.264 19.4612 0.008886 0.050791 -3.020363
2011-09-09 06:52:39 51°16.275 2°53.114 19.476 0.008886 0.050791 -3.020363
2011-09-09 06:53:38 51°16.459 2°52.997 19.5682 0.008886 0.050791 -3.020363
2011-09-09 06:54:39 51°16.646 2°52.866 19.5543 0.008886 0.050791 -3.020363
2011-09-09 06:55:38 51°16.824 2°52.736 19.5538 0.008886 0.050791 -3.020363
2011-09-09 06:56:39 51°17.009 2°52.611 19.5587 0.008886 0.050791 -3.020363
2011-09-09 06:57:39 51°17.188 2°52.48 19.5625 0.008886 0.050791 -3.020363
2011-09-09 06:58:39 51°17.365 2°52.338 19.5784 0.008886 0.050791 -3.020363
2011-09-09 06:59:39 51°17.532 2°52.165 19.5816 0.008886 0.050791 -3.020363
2011-09-09 07:00:39 51°17.699 2°51.993 19.5933 0.008886 0.05079 -3.020363
2011-09-09 07:01:39 51°17.863 2°51.817 19.6066 0.008886 0.05079 -3.020363
2011-09-09 07:02:38 51°18.021 2°51.631 19.607 0.008886 0.050789 -3.020363
2011-09-09 07:03:39 51°18.195 2°51.463 19.6292 0.008886 0.050789 -3.020363
2011-09-09 07:04:38 51°18.356 2°51.282 19.6384 0.008886 0.050789 -3.020363
2011-09-09 07:05:39 51°18.522 2°51.093 19.6439 0.008886 0.050789 -3.020363
2011-09-09 07:06:39 51°18.688 2°50.912 19.6624 0.008886 0.050788 -3.020363
2011-09-09 07:07:39 51°18.852 2°50.727 19.6678 0.008886 0.050789 -3.020363
2011-09-09 07:08:39 51°19.02 2°50.549 19.6823 0.008886 0.050788 -3.020363
2011-09-09 07:09:39 51°19.184 2°50.362 19.6913 0.008886 0.050788 -3.020363
2011-09-09 07:10:39 51°19.347 2°50.172 19.7035 0.008886 0.050788 -3.020363
2011-09-09 07:11:39 51°19.518 2°50 19.7164 0.008886 0.050788 -3.020363
2011-09-09 07:12:39 51°19.689 2°49.826 19.7278 0.008886 0.050788 -3.020363
2011-09-09 07:13:39 51°19.854 2°49.634 19.7361 0.008886 0.050788 -3.020363
2011-09-09 07:14:39 51°20.016 2°49.437 19.7464 0.008886 0.050788 -3.020363
2011-09-09 07:15:39 51°20.183 2°49.249 19.765 0.008886 0.050788 -3.020363
2011-09-09 07:16:38 51°20.348 2°49.07 19.7762 0.008886 0.050788 -3.020363
2011-09-09 07:17:39 51°20.515 2°48.873 19.7851 0.008886 0.050788 -3.020363
2011-09-09 07:18:39 51°20.681 2°48.685 19.7939 0.008886 0.050788 -3.020363
2011-09-09 07:19:39 51°20.847 2°48.498 19.8089 0.008886 0.050788 -3.020363
2011-09-09 07:20:38 51°21.008 2°48.307 19.8167 0.008886 0.050788 -3.020363
2011-09-09 07:21:39 51°21.179 2°48.121 19.8331 0.008886 0.050788 -3.020363
2011-09-09 07:22:39 51°21.352 2°47.946 19.8448 0.008886 0.050788 -3.020363
2011-09-09 07:23:39 51°21.519 2°47.756 19.849 0.008886 0.050788 -3.020363
2011-09-09 07:24:39 51°21.69 2°47.578 19.8709 0.008886 0.050788 -3.020363
2011-09-09 07:25:39 51°21.857 2°47.389 19.8765 0.008886 0.050788 -3.020363
2011-09-09 07:26:39 51°22.027 2°47.21 19.8908 0.008886 0.050788 -3.020363
2011-09-09 07:27:39 51°22.195 2°47.027 19.9015 0.008886 0.050788 -3.020363
2011-09-09 07:28:39 51°22.355 2°46.828 19.9091 0.008886 0.050787 -3.020363
2011-09-09 07:29:39 51°22.522 2°46.646 19.9123 0.008886 0.050787 -3.020363
2011-09-09 07:30:39 51°22.692 2°46.47 19.9354 0.008886 0.050786 -3.020363
2011-09-09 07:31:39 51°22.856 2°46.279 19.9523 0.008886 0.050785 -3.020363
2011-09-09 07:32:39 51°23.021 2°46.091 19.9458 0.008886 0.050784 -3.020363
2011-09-09 07:33:39 51°23.188 2°45.906 19.9688 0.008886 0.050783 -3.020363
2011-09-09 07:34:39 51°23.341 2°45.689 19.9768 0.008886 0.050782 -3.020363
2011-09-09 07:35:39 51°23.499 2°45.481 19.9939 0.008886 0.05078 -3.020363
2011-09-09 07:36:39 51°23.646 2°45.254 19.9986 0.008886 0.050779 -3.020363
2011-09-09 07:37:39 51°23.791 2°45.022 17.4476 1.413681 9.431802 -3.020363
2011-09-09 07:38:39 51°23.938 2°44.794 17.3348 4.398475 33.657797 -3.020363
2011-09-09 07:39:39 51°24.097 2°44.592 17.3258 4.447849 34.198844 -3.020363
2011-09-09 07:40:38 51°24.257 2°44.423 17.3167 4.452517 34.255975 -3.020363
2011-09-09 07:41:39 51°24.368 2°44.289 17.3081 4.445879 34.209645 -3.020363
2011-09-09 07:42:39 51°24.464 2°44.175 17.3028 4.444738 34.209984 -3.020363
2011-09-09 07:43:39 51°24.555 2°44.054 17.2896 4.449302 34.252704 -3.020363
2011-09-09 07:44:39 51°24.642 2°43.927 17.2888 4.447331 34.239792 -3.020363
2011-09-09 07:45:39 51°24.712 2°43.808 17.2881 4.457912 34.330997 -3.020363
2011-09-09 07:46:39 51°24.718 2°43.771 17.285 4.453451 34.294583 -3.020363
2011-09-09 07:47:42 51°24.714 2°43.765 17.2825 4.452207 34.286571 -3.020363
2011-09-09 07:48:42 51°24.688 2°43.767 17.2843 4.447539 34.247012 -3.020363
2011-09-09 07:49:41 51°24.66 2°43.766 17.2837 4.455215 34.312507 -3.020363
2011-09-09 07:50:39 51°24.658 2°43.764 17.2868 4.456978 34.329073 -3.020363
2011-09-09 07:51:39 51°24.674 2°43.735 17.2837 4.454903 34.309824 -3.020363
2011-09-09 07:52:39 51°24.675 2°43.727 17.2838 4.451273 34.278523 -3.020363
2011-09-09 07:53:39 51°24.671 2°43.732 17.283 4.454281 34.305138 -3.020363
2011-09-09 07:54:39 51°24.668 2°43.735 17.2837 4.455111 34.311613 -3.020363
2011-09-09 07:55:39 51°24.67 2°43.733 17.2874 4.453348 34.297089 -3.020363
2011-09-09 07:56:39 51°24.674 2°43.721 17.2832 4.445049 34.222161 -3.020363
2011-09-09 07:57:39 51°24.674 2°43.712 17.2849 4.445672 34.229561 -3.020363
2011-09-09 07:58:39 51°24.674 2°43.709 17.2925 4.448161 34.24966 -3.020363
2011-09-09 07:59:39 51°24.673 2°43.71 17.2922 4.449302 34.251346 -3.020363
2011-09-09 08:00:39 51°24.671 2°43.714 17.2826 4.448576 34.249841 -3.020363
2011-09-09 08:01:39 51°24.669 2°43.719 17.2819 4.441834 34.197162 -3.020363
2011-09-09 08:02:39 51°24.672 2°43.718 17.2839 4.456874 34.326818 -3.020363
2011-09-09 08:03:39 51°24.675 2°43.714 17.2823 4.456667 34.324348 -3.020363
2011-09-09 08:04:39 51°24.677 2°43.713 17.2815 4.456667 34.325709 -3.020363
2011-09-09 08:05:39 51°24.675 2°43.715 17.2877 4.456148 34.319196 -3.020363
2011-09-09 08:06:39 51°24.673 2°43.721 17.2809 4.457185 34.326098 -3.020363
2011-09-09 08:07:39 51°24.672 2°43.726 17.2876 4.456459 34.322559 -3.020363
2011-09-09 08:08:39 51°24.672 2°43.731 17.2913 4.457082 34.321801 -3.020363
2011-09-09 08:09:39 51°24.675 2°43.725 17.2816 4.458949 34.336537 -3.020363
2011-09-09 08:10:39 51°24.676 2°43.719 17.2812 4.45926 34.34671 -3.020363
2011-09-09 08:11:39 51°24.675 2°43.725 17.2811 4.459364 34.346923 -3.020363
2011-09-09 08:12:39 51°24.675 2°43.732 17.2805 4.459053 34.344921 -3.020363
2011-09-09 08:13:39 51°24.678 2°43.735 17.2839 4.459156 34.345815 -3.020363
2011-09-09 08:14:39 51°24.673 2°43.748 17.2836 4.459675 34.346883 -3.020363
2011-09-09 08:15:39 51°24.671 2°43.758 17.2812 4.459364 34.345561 -3.020363
2011-09-09 08:16:39 51°24.685 2°43.726 17.2803 4.458949 34.344026 -3.020363
2011-09-09 08:17:39 51°24.679 2°43.676 17.2801 4.458845 34.343813 -3.020363
2011-09-09 08:18:39 51°24.681 2°43.685 17.2804 4.458534 34.340448 -3.020363
2011-09-09 08:19:39 51°24.681 2°43.688 17.2834 4.458534 34.339087 -3.020363
2011-09-09 08:20:39 51°24.679 2°43.691 17.2829 4.458534 34.338406 -3.020363
2011-09-09 08:21:39 51°24.679 2°43.7 17.2821 4.458534 34.337725 -3.020363
2011-09-09 08:22:39 51°24.675 2°43.704 17.2809 4.457082 34.326565 -3.020363
2011-09-09 08:23:39 51°24.673 2°43.715 17.2806 4.457185 34.327459 -3.020363
2011-09-09 08:24:39 51°24.673 2°43.729 17.2792 4.458119 34.334828 -3.020363
2011-09-09 08:25:39 51°24.675 2°43.744 17.2798 4.457704 34.332612 -3.020363
2011-09-09 08:26:39 51°24.678 2°43.761 17.2817 4.458638 34.3393 -3.020363
2011-09-09 08:27:39 51°24.664 2°43.803 17.2822 4.459156 34.343772 -3.020363
2011-09-09 08:28:39 51°24.691 2°43.942 17.2837 4.459053 34.342878 -3.020363
2011-09-09 08:29:39 51°24.754 2°44.187 17.2834 4.459364 34.342838 -3.020363
2011-09-09 08:30:39 51°24.846 2°44.467 17.2834 4.459467 34.344413 -3.020363
2011-09-09 08:31:39 51°24.964 2°44.745 17.2842 4.459467 34.343051 -3.020363
2011-09-09 08:32:39 51°25.083 2°45.02 17.2761 4.459675 34.346202 -3.020363
2011-09-09 08:33:39 51°25.21 2°45.285 17.2709 4.46009 34.356591 -3.020363
2011-09-09 08:34:39 51°25.359 2°45.515 17.2662 4.459986 34.358422 -3.020363
2011-09-09 08:35:38 51°25.509 2°45.742 17.264 4.459779 34.36004 -3.020363
2011-09-09 08:36:39 51°25.658 2°45.982 17.261 4.459571 34.360976 -3.020363
2011-09-09 08:37:39 51°25.801 2°46.221 17.2524 4.459364 34.361232 -3.020363
2011-09-09 08:38:39 51°25.947 2°46.459 17.2452 4.458638 34.361784 -3.020363
2011-09-09 08:39:38 51°26.086 2°46.702 17.2427 4.457808 34.360078 -3.020363
2011-09-09 08:40:39 51°26.24 2°46.931 17.2433 4.457186 34.357435 -3.020363
2011-09-09 08:41:39 51°26.41 2°47.125 17.2472 4.456978 34.353599 -3.020363
2011-09-09 08:42:39 51°26.576 2°47.327 17.2536 4.457082 34.350404 -3.020363
2011-09-09 08:43:38 51°26.735 2°47.535 17.2568 4.457186 34.347209 -3.020363
2011-09-09 08:44:38 51°26.898 2°47.742 17.256 4.457393 34.345592 -3.020363
2011-09-09 08:45:39 51°27.072 2°47.937 17.2552 4.457082 34.343589 -3.020363
2011-09-09 08:46:39 51°27.238 2°48.141 17.2532 4.456978 34.343375 -3.020363
2011-09-09 08:47:39 51°27.401 2°48.353 17.2507 4.456978 34.346101 -3.020363
2011-09-09 08:48:39 51°27.567 2°48.563 17.2536 4.456875 34.345206 -3.020363
2011-09-09 08:49:39 51°27.732 2°48.77 17.2625 4.456978 34.344738 -3.020363
2011-09-09 08:50:39 51°27.899 2°48.975 17.2794 4.457704 34.340102 -3.020363
2011-09-09 08:51:39 51°28.067 2°49.182 17.2888 4.458638 34.337258 -3.020363
2011-09-09 08:52:38 51°28.233 2°49.387 17.2957 4.459467 34.335564 -3.020363
2011-09-09 08:53:39 51°28.401 2°49.605 17.3028 4.459882 34.333697 -3.020363
2011-09-09 08:54:39 51°28.57 2°49.807 17.3057 4.460504 34.332938 -3.020363
2011-09-09 08:55:38 51°28.735 2°50.012 17.2994 4.461334 34.340089 -3.020363
2011-09-09 08:56:39 51°28.906 2°50.223 17.2958 4.459882 34.330295 -3.020363
2011-09-09 08:57:39 51°29.081 2°50.417 17.288 4.459156 34.329479 -3.020363
2011-09-09 08:58:39 51°29.259 2°50.603 17.2708 4.45843 34.330705 -3.020363
2011-09-09 08:59:39 51°29.434 2°50.798 17.2679 4.457704 34.335335 -3.020363
2011-09-09 09:00:39 51°29.61 2°50.994 17.2655 4.456667 34.329113 -3.020363
2011-09-09 09:01:39 51°29.784 2°51.188 17.2644 4.456459 34.328685 -3.020363
2011-09-09 09:02:39 51°29.961 2°51.375 17.2666 4.455941 34.324893 -3.020363
2011-09-09 09:03:39 51°30.148 2°51.531 17.2742 4.456045 34.324426 -3.020363
2011-09-09 09:04:38 51°30.331 2°51.683 17.281 4.455941 34.318087 -3.020363
2011-09-09 09:05:39 51°30.514 2°51.856 17.2905 4.455214 34.304345 -3.020363
2011-09-09 09:06:38 51°30.693 2°52.014 17.3043 4.453451 34.280311 -3.020363
2011-09-09 09:07:39 51°30.879 2°52.177 17.3112 4.45065 34.246677 -3.020363
2011-09-09 09:08:39 51°31.046 2°52.321 17.3151 4.447331 34.212665 -3.020363
2011-09-09 09:09:39 51°31.142 2°52.407 17.3165 4.449924 34.231607 -3.020363
2011-09-09 09:10:39 51°31.211 2°52.492 17.3177 4.448472 34.218424 -3.020363
2011-09-09 09:11:39 51°31.269 2°52.581 17.3205 4.447538 34.207676 -3.020363
2011-09-09 09:12:39 51°31.308 2°52.654 17.3237 4.446397 34.196498 -3.020363
2011-09-09 09:13:39 51°31.353 2°52.694 17.3232 4.44619 34.193358 -3.020363
2011-09-09 09:14:39 51°31.387 2°52.674 17.322 4.445567 34.186647 -3.020363
2011-09-09 09:15:39 51°31.397 2°52.631 17.324 4.444219 34.189932 -3.020363
2011-09-09 09:16:39 51°31.379 2°52.58 17.3262 4.443908 34.184544 -3.020363
2011-09-09 09:17:39 51°31.33 2°52.522 17.3293 4.444011 34.182729 -3.020363
2011-09-09 09:18:39 51°31.283 2°52.494 17.3325 4.444323 34.1827 -3.020363
2011-09-09 09:19:39 51°31.255 2°52.501 17.3355 4.44453 34.183132 -3.020363
2011-09-09 09:20:40 51°31.266 2°52.524 17.3336 4.445049 34.185567 -3.020363
2011-09-09 09:21:40 51°31.278 2°52.542 17.3322 4.44536 34.188923 -3.020363
2011-09-09 09:22:38 51°31.281 2°52.552 17.3321 4.446086 34.197882 -3.020363
2011-09-09 09:23:39 51°31.277 2°52.561 17.3307 4.446086 34.199237 -3.020363
2011-09-09 09:24:39 51°31.271 2°52.566 17.3294 4.446397 34.201239 -3.020363
2011-09-09 09:25:39 51°31.266 2°52.566 17.3347 4.445982 34.196989 -3.020363
2011-09-09 09:26:39 51°31.268 2°52.565 17.3332 4.446293 34.200346 -3.020363
2011-09-09 09:27:39 51°31.272 2°52.563 17.3368 4.445671 34.193633 -3.020363
2011-09-09 09:28:39 51°31.274 2°52.56 17.3386 4.445878 34.194065 -3.020363
2011-09-09 09:29:39 51°31.274 2°52.559 17.3388 4.445878 34.192711 -3.020363
2011-09-09 09:30:39 51°31.273 2°52.561 17.3374 4.445567 34.188678 -3.020363
2011-09-09 09:31:39 51°31.272 2°52.565 17.336 4.445152 34.185783 -3.020363
2011-09-09 09:32:39 51°31.27 2°52.566 17.336 4.445049 34.18489 -3.020363
2011-09-09 09:33:39 51°31.269 2°52.566 17.3391 4.445152 34.185783 -3.020363
2011-09-09 09:34:39 51°31.269 2°52.566 17.3364 4.445671 34.189571 -3.020363
2011-09-09 09:35:39 51°31.27 2°52.566 17.336 4.445567 34.189355 -3.020363
2011-09-09 09:36:39 51°31.272 2°52.566 17.3372 4.44536 34.186892 -3.020363
2011-09-09 09:37:39 51°31.272 2°52.566 17.3359 4.444841 34.183104 -3.020363
2011-09-09 09:38:39 51°31.271 2°52.566 17.3386 4.444426 34.178855 -3.020363
2011-09-09 09:39:39 51°31.27 2°52.568 17.3334 4.44619 34.196067 -3.020363
2011-09-09 09:40:39 51°31.271 2°52.568 17.3316 4.447331 34.207245 -3.020363
2011-09-09 09:41:39 51°31.27 2°52.568 17.3313 4.447123 34.207491 -3.020363
2011-09-09 09:42:39 51°31.27 2°52.567 17.3347 4.447123 34.206136 -3.020363
2011-09-09 09:43:39 51°31.269 2°52.569 17.3345 4.447123 34.205459 -3.020363
2011-09-09 09:44:39 51°31.269 2°52.568 17.3371 4.447019 34.203211 -3.020363
2011-09-09 09:45:39 51°31.27 2°52.566 17.3382 4.447331 34.204536 -3.020363
2011-09-09 09:46:39 51°31.272 2°52.566 17.3351 4.447434 34.204751 -3.020363
2011-09-09 09:47:39 51°31.273 2°52.566 17.3356 4.447227 34.20432 -3.020363
2011-09-09 09:48:39 51°31.271 2°52.566 17.3388 4.447227 34.202288 -3.020363
2011-09-09 09:49:39 51°31.269 2°52.569 17.3374 4.447434 34.204751 -3.020363
2011-09-09 09:50:39 51°31.269 2°52.571 17.3372 4.447642 34.20586 -3.020363
2011-09-09 09:51:39 51°31.27 2°52.568 17.3369 4.447538 34.206322 -3.020363
2011-09-09 09:52:39 51°31.272 2°52.567 17.3405 4.447434 34.204751 -3.020363
2011-09-09 09:53:38 51°31.272 2°52.568 17.3387 4.447538 34.203613 -3.020363
2011-09-09 09:54:39 51°31.271 2°52.569 17.3405 4.447745 34.204722 -3.020363
2011-09-09 09:55:38 51°31.27 2°52.569 17.3419 4.447953 34.20583 -3.020363
2011-09-09 09:56:39 51°31.27 2°52.569 17.3414 4.447953 34.20583 -3.020363
2011-09-09 09:57:39 51°31.271 2°52.569 17.3406 4.447331 34.199796 -3.020363
2011-09-09 09:58:38 51°31.271 2°52.568 17.3436 4.448057 34.206046 -3.020363
2011-09-09 09:59:39 51°31.271 2°52.567 17.3445 4.44733 34.198442 -3.020363
2011-09-09 10:00:38 51°31.271 2°52.569 17.3423 4.447434 34.199334 -3.020363
2011-09-09 10:01:39 51°31.27 2°52.57 17.3431 4.447538 34.200227 -3.020363
2011-09-09 10:02:39 51°31.269 2°52.57 17.3418 4.447745 34.20269 -3.020363
2011-09-09 10:03:38 51°31.27 2°52.569 17.3425 4.447953 34.204476 -3.020363
2011-09-09 10:04:39 51°31.272 2°52.569 17.3413 4.448057 34.205369 -3.020363
2011-09-09 10:05:39 51°31.273 2°52.565 17.3439 4.448264 34.208509 -3.020363
2011-09-09 10:06:39 51°31.273 2°52.564 17.3455 4.448679 34.209372 -3.020363
2011-09-09 10:07:39 51°31.273 2°52.567 17.3438 4.449094 34.212266 -3.020363
2011-09-09 10:08:39 51°31.271 2°52.568 17.3435 4.447123 34.195302 -3.020363
2011-09-09 10:09:39 51°31.27 2°52.568 17.3448 4.449094 34.212266 -3.020363
2011-09-09 10:10:39 51°31.271 2°52.57 17.3409 4.449405 34.214945 -3.020363
2011-09-09 10:11:39 51°31.271 2°52.567 17.3444 4.449198 34.214514 -3.020363
2011-09-09 10:12:39 51°31.273 2°52.565 17.3449 4.448886 34.210481 -3.020363
2011-09-09 10:13:39 51°31.275 2°52.566 17.3447 4.449509 34.215161 -3.020363
2011-09-09 10:14:38 51°31.273 2°52.567 17.346 4.449612 34.216054 -3.020363
2011-09-09 10:15:39 51°31.272 2°52.567 17.3474 4.449924 34.218055 -3.020363
2011-09-09 10:16:39 51°31.272 2°52.568 17.3462 4.449716 34.216269 -3.020363
2011-09-09 10:17:39 51°31.273 2°52.568 17.3464 4.449716 34.216269 -3.020363
2011-09-09 10:18:39 51°31.272 2°52.567 17.3471 4.449301 34.212021 -3.020363
2011-09-09 10:19:39 51°31.272 2°52.567 17.3484 4.449924 34.216023 -3.020363
2011-09-09 10:20:39 51°31.272 2°52.569 17.3474 4.450027 34.217593 -3.020363
2011-09-09 10:21:39 51°31.271 2°52.569 17.3481 4.449924 34.2167 -3.020363
2011-09-09 10:22:39 51°31.271 2°52.568 17.3468 4.44982 34.215808 -3.020363
2011-09-09 10:23:39 51°31.272 2°52.568 17.3453 4.44982 34.216485 -3.020363
2011-09-09 10:24:39 51°31.273 2°52.567 17.347 4.449716 34.214915 -3.020363
2011-09-09 10:25:39 51°31.269 2°52.557 17.3448 4.44982 34.217162 -3.020363
2011-09-09 10:26:39 51°31.262 2°52.544 17.3448 4.449924 34.218055 -3.020363
2011-09-09 10:27:38 51°31.256 2°52.534 17.3458 4.450546 34.223412 -3.020363
2011-09-09 10:28:39 51°31.257 2°52.538 17.3457 4.450131 34.220518 -3.020363
2011-09-09 10:29:39 51°31.262 2°52.554 17.3427 4.450753 34.223843 -3.020363
2011-09-09 10:30:39 51°31.269 2°52.578 17.3437 4.44982 34.217839 -3.020363
2011-09-09 10:31:39 51°31.28 2°52.607 17.3458 4.450027 34.220303 -3.020363
2011-09-09 10:32:38 51°31.289 2°52.639 17.3496 4.450857 34.224059 -3.020363
2011-09-09 10:33:38 51°31.297 2°52.675 17.3448 4.450961 34.224274 -3.020363
2011-09-09 10:34:38 51°31.304 2°52.714 17.3443 4.451065 34.225845 -3.020363
2011-09-09 10:35:39 51°31.309 2°52.756 17.3432 4.450442 34.223197 -3.020363
2011-09-09 10:36:39 51°31.308 2°52.794 17.343 4.450857 34.227446 -3.020363
2011-09-09 10:37:39 51°31.3 2°52.829 17.3396 4.453658 34.25088 -3.020363
2011-09-09 10:38:38 51°31.289 2°52.862 17.3405 4.453347 34.25159 -3.020363
2011-09-09 10:39:39 51°31.277 2°52.894 17.3408 4.45345 34.250449 -3.020363
2011-09-09 10:40:38 51°31.264 2°52.92 17.3418 4.45345 34.251127 -3.020363
2011-09-09 10:41:39 51°31.25 2°52.946 17.3408 4.453658 34.251558 -3.020363
2011-09-09 10:42:39 51°31.232 2°52.967 17.3403 4.453762 34.253807 -3.020363
2011-09-09 10:43:39 51°31.214 2°52.987 17.3382 4.453658 34.25427 -3.020363
2011-09-09 10:44:39 51°31.193 2°53.005 17.3392 4.453762 34.255163 -3.020363
2011-09-09 10:45:39 51°31.117 2°53.001 17.3361 4.454073 34.258521 -3.020363
2011-09-09 10:46:39 51°30.979 2°52.97 17.3313 4.441522 34.152503 -3.020363
2011-09-09 10:47:39 51°30.808 2°52.909 17.3248 4.441729 34.15767 -3.020363
2011-09-09 10:48:39 51°30.623 2°52.895 17.3207 4.463616 34.354312 -3.020363
2011-09-09 10:49:38 51°30.437 2°52.886 17.3213 4.464135 34.361504 -3.020363
2011-09-09 10:50:37 51°30.252 2°52.857 17.3129 4.464654 34.366655 -3.020363
2011-09-09 10:51:38 51°30.06 2°52.842 17.3111 4.464757 34.372997 -3.020363
2011-09-09 10:52:37 51°29.875 2°52.82 17.3135 4.464446 34.372357 -3.020363
2011-09-09 10:53:38 51°29.687 2°52.787 17.3237 4.465069 34.372955 -3.020363
2011-09-09 10:54:37 51°29.503 2°52.769 17.3333 4.465898 34.368532 -3.020363
2011-09-09 10:55:38 51°29.316 2°52.72 17.3381 4.465794 34.362874 -3.020363
2011-09-09 10:56:37 51°29.135 2°52.688 17.3365 4.465587 34.357005 -3.020363
2011-09-09 10:57:38 51°28.947 2°52.654 17.3356 4.465587 34.354965 -3.020363
2011-09-09 10:58:37 51°28.77 2°52.598 17.3299 4.464965 34.352324 -3.020363
2011-09-09 10:59:38 51°28.584 2°52.545 17.3334 4.463824 34.345215 -3.020363
2011-09-09 11:00:38 51°28.401 2°52.497 17.331 4.463097 34.33964 -3.020363
2011-09-09 11:01:38 51°28.219 2°52.434 17.3317 4.463201 34.337134 -3.020363
2011-09-09 11:02:39 51°28.033 2°52.381 17.3325 4.463097 34.33964 -3.020363
2011-09-09 11:03:37 51°27.855 2°52.335 17.3258 4.463409 34.344361 -3.020363
2011-09-09 11:04:38 51°27.668 2°52.284 17.317 4.462683 34.342866 -3.020363
2011-09-09 11:05:37 51°27.489 2°52.227 17.3059 4.461853 34.344559 -3.020363
2011-09-09 11:06:38 51°27.304 2°52.157 17.3043 4.461023 34.342851 -3.020363
2011-09-09 11:07:38 51°27.122 2°52.11 17.3033 4.460401 34.342931 -3.020363
2011-09-09 11:08:38 51°26.939 2°52.064 17.3033 4.464758 34.377765 -3.020363
2011-09-09 11:09:39 51°26.766 2°51.955 17.3062 4.464654 34.376871 -3.020363
2011-09-09 11:10:38 51°26.687 2°51.819 17.3063 4.464861 34.375934 -3.020363
2011-09-09 11:11:39 51°26.694 2°51.766 17.3101 4.464757 34.374359 -3.020363
2011-09-09 11:12:38 51°26.719 2°51.786 17.313 4.465276 34.376786 -3.020363
2011-09-09 11:13:39 51°26.741 2°51.768 17.3112 4.46538 34.376999 -3.020363
2011-09-09 11:14:38 51°26.753 2°51.778 17.3102 4.465484 34.378574 -3.020363
2011-09-09 11:15:39 51°26.766 2°51.801 17.3127 4.465691 34.378319 -3.020363
2011-09-09 11:16:38 51°26.771 2°51.816 17.3142 4.465691 34.379 -3.020363
2011-09-09 11:17:38 51°26.767 2°51.815 17.3129 4.465795 34.379213 -3.020363
2011-09-09 11:18:38 51°26.766 2°51.818 17.312 4.465587 34.379469 -3.020363
2011-09-09 11:19:38 51°26.767 2°51.816 17.3148 4.465691 34.379682 -3.020363
2011-09-09 11:20:39 51°26.77 2°51.812 17.3156 4.466002 34.378958 -3.020363
2011-09-09 11:21:38 51°26.771 2°51.811 17.3165 4.466106 34.379852 -3.020363
2011-09-09 11:22:39 51°26.77 2°51.814 17.3183 4.46621 34.380065 -3.020363
2011-09-09 11:23:38 51°26.768 2°51.815 17.3183 4.466417 34.37981 -3.020363
2011-09-09 11:24:39 51°26.769 2°51.815 17.3178 4.466521 34.380704 -3.020363
2011-09-09 11:25:38 51°26.77 2°51.814 17.3173 4.466417 34.380491 -3.020363
2011-09-09 11:26:37 51°26.769 2°51.813 17.319 4.466417 34.37981 -3.020363
2011-09-09 11:27:38 51°26.767 2°51.817 17.3151 4.466417 34.380491 -3.020363
2011-09-09 11:28:37 51°26.768 2°51.816 17.3155 4.466313 34.380278 -3.020363
2011-09-09 11:29:38 51°26.768 2°51.815 17.318 4.466313 34.380278 -3.020363
2011-09-09 11:30:37 51°26.769 2°51.815 17.3191 4.466417 34.379129 -3.020363
2011-09-09 11:31:38 51°26.769 2°51.813 17.323 4.466417 34.37981 -3.020363
2011-09-09 11:32:37 51°26.77 2°51.811 17.3231 4.466624 34.379555 -3.020363
2011-09-09 11:33:38 51°26.77 2°51.813 17.3239 4.466832 34.378619 -3.020363
2011-09-09 11:34:37 51°26.77 2°51.813 17.3214 4.466832 34.3793 -3.020363
2011-09-09 11:35:38 51°26.77 2°51.812 17.3226 4.466624 34.378874 -3.020363
2011-09-09 11:36:39 51°26.769 2°51.813 17.3222 4.466521 34.37798 -3.020363
2011-09-09 11:37:39 51°26.768 2°51.815 17.323 4.466728 34.378406 -3.020363
2011-09-09 11:38:38 51°26.768 2°51.815 17.3235 4.466728 34.377044 -3.020363
2011-09-09 11:39:38 51°26.769 2°51.815 17.3227 4.466728 34.376363 -3.020363
2011-09-09 11:40:38 51°26.769 2°51.814 17.3223 4.466728 34.377044 -3.020363
2011-09-09 11:41:37 51°26.769 2°51.814 17.3222 4.466624 34.376831 -3.020363
2011-09-09 11:42:38 51°26.769 2°51.815 17.3255 4.466521 34.376618 -3.020363
2011-09-09 11:43:37 51°26.769 2°51.814 17.3249 4.466624 34.37547 -3.020363
2011-09-09 11:44:38 51°26.769 2°51.814 17.3263 4.466624 34.37547 -3.020363
2011-09-09 11:45:39 51°26.77 2°51.814 17.3258 4.466417 34.374363 -3.020363
2011-09-09 11:46:38 51°26.771 2°51.812 17.3257 4.466521 34.374576 -3.020363
2011-09-09 11:47:39 51°26.772 2°51.811 17.3247 4.466521 34.373895 -3.020363
2011-09-09 11:48:38 51°26.77 2°51.813 17.3258 4.466417 34.373682 -3.020363
2011-09-09 11:49:39 51°26.767 2°51.815 17.3271 4.466417 34.37232 -3.020363
2011-09-09 11:50:38 51°26.761 2°51.804 17.3256 4.466313 34.372788 -3.020363
2011-09-09 11:51:38 51°26.756 2°51.791 17.3283 4.466209 34.371213 -3.020363
2011-09-09 11:52:38 51°26.758 2°51.791 17.3319 4.466313 34.369385 -3.020363
2011-09-09 11:53:38 51°26.766 2°51.805 17.3325 4.466624 34.370024 -3.020363
2011-09-09 11:54:39 51°26.762 2°51.814 17.3364 4.466728 34.369557 -3.020363
2011-09-09 11:55:38 51°26.699 2°51.81 17.3339 4.466624 34.369343 -3.020363
2011-09-09 11:56:39 51°26.562 2°51.761 17.339 4.466313 34.365301 -3.020363
2011-09-09 11:57:38 51°26.385 2°51.764 17.3383 4.466209 34.361006 -3.020363
2011-09-09 11:58:39 51°26.191 2°51.781 17.3389 4.465691 34.353138 -3.020363
2011-09-09 11:59:38 51°26.003 2°51.792 17.3368 4.464861 34.34735 -3.020363
2011-09-09 12:00:39 51°25.809 2°51.786 17.3454 4.464238 34.344029 -3.020363
2011-09-09 12:01:38 51°25.621 2°51.803 17.3449 4.464446 34.339698 -3.020363
2011-09-09 12:02:38 51°25.432 2°51.804 17.3528 4.463408 34.328726 -3.020363
2011-09-09 12:03:38 51°25.244 2°51.815 17.3563 4.462475 34.313896 -3.020363
2011-09-09 12:04:38 51°25.055 2°51.827 17.3614 4.461749 34.303573 -3.020363
2011-09-09 12:05:39 51°24.865 2°51.825 17.3653 4.461541 34.299751 -3.020363
2011-09-09 12:06:37 51°24.683 2°51.836 17.3593 4.461437 34.298858 -3.020363
2011-09-09 12:07:38 51°24.491 2°51.849 17.3586 4.460815 34.296215 -3.020363
2011-09-09 12:08:37 51°24.303 2°51.838 17.3712 4.461022 34.29393 -3.020363
2011-09-09 12:09:38 51°24.111 2°51.844 17.3776 4.460919 34.288968 -3.020363
2011-09-09 12:10:37 51°23.923 2°51.851 17.3819 4.461437 34.284616 -3.020363
2011-09-09 12:11:38 51°23.731 2°51.846 17.383 4.461126 34.277872 -3.020363
2011-09-09 12:12:39 51°23.54 2°51.839 17.3803 4.46123 34.278764 -3.020363
2011-09-09 12:13:38 51°23.354 2°51.854 17.3721 4.460815 34.278584 -3.020363
2011-09-09 12:14:39 51°23.163 2°51.858 17.3615 4.459777 34.277115 -3.020363
2011-09-09 12:15:38 51°22.975 2°51.866 17.3517 4.459051 34.276968 -3.020363
2011-09-09 12:16:39 51°22.781 2°51.874 17.3512 4.458429 34.277715 -3.020363
2011-09-09 12:17:39 51°22.59 2°51.867 17.3484 4.457703 34.274856 -3.020363
2011-09-09 12:18:39 51°22.4 2°51.884 17.3484 4.458118 34.278427 -3.020363
2011-09-09 12:19:38 51°22.211 2°51.9 17.3429 4.458326 34.284284 -3.020363
2011-09-09 12:20:39 51°22.018 2°51.895 17.3427 4.458014 34.282283 -3.020363
2011-09-09 12:21:39 51°21.827 2°51.893 17.3368 4.458014 34.285676 -3.020363
2011-09-09 12:22:38 51°21.639 2°51.914 17.3374 4.457392 34.284389 -3.020363
2011-09-09 12:23:39 51°21.445 2°51.926 17.3258 4.456977 34.28421 -3.020363
2011-09-09 12:24:38 51°21.258 2°51.928 17.3087 4.455836 34.283208 -3.020363
2011-09-09 12:25:38 51°21.067 2°51.919 17.2938 4.454384 34.281562 -3.020363
2011-09-09 12:26:38 51°20.875 2°51.928 17.2793 4.452829 34.281062 -3.020363
2011-09-09 12:27:39 51°20.68 2°51.93 17.2708 4.451999 34.282743 -3.020363
2011-09-09 12:28:38 51°20.49 2°51.931 17.2522 4.451169 34.288507 -3.020363
2011-09-09 12:29:38 51°20.295 2°51.932 17.2423 4.449717 34.289588 -3.020363
2011-09-09 12:30:39 51°20.099 2°51.925 17.2436 4.448888 34.289234 -3.020363
2011-09-09 12:31:38 51°19.908 2°51.924 17.2388 4.447851 34.283687 -3.020363
2011-09-09 12:32:39 51°19.713 2°51.904 17.2551 4.447436 34.277385 -3.020363
2011-09-09 12:33:38 51°19.524 2°51.904 17.2794 4.44702 34.259524 -3.020363
2011-09-09 12:34:39 51°19.328 2°51.902 17.3059 4.446398 34.232425 -3.020363
2011-09-09 12:35:38 51°19.139 2°51.903 17.3312 4.44619 34.209615 -3.020363
2011-09-09 12:36:39 51°18.944 2°51.946 17.3419 4.446812 34.194654 -3.020363
2011-09-09 12:37:38 51°18.754 2°51.976 17.3514 2.215421 14.887915 -3.020363
2011-09-09 12:38:37 51°18.566 2°52.016 17.3481 0.156637 0.853776 -3.020363
2011-09-09 12:39:38 51°18.37 2°52.042 17.3429 0.060291 0.317821 -3.020363
2011-09-09 12:40:37 51°18.181 2°52.068 17.338 0.055048 0.290973 -3.020363
2011-09-09 12:41:38 51°17.986 2°52.11 17.3377 0.053917 0.285911 -3.020363
2011-09-09 12:42:37 51°17.799 2°52.153 17.3213 0.053711 0.284451 -3.020363
2011-09-09 12:43:39 51°17.6 2°52.19 17.3259 0.053711 0.284779 -3.020363
2011-09-09 12:44:38 51°17.417 2°52.283 17.3362 0.053505 0.2846 -3.020363
2011-09-09 12:45:38 51°17.231 2°52.386 17.3344 0.053094 0.283525 -3.020363
2011-09-09 12:46:38 51°17.05 2°52.516 17.3309 0.052786 0.283114 -3.020363
2011-09-09 12:47:37 51°16.877 2°52.658 17.3267 0.052477 0.282741 -3.020363
2011-09-09 12:48:38 51°16.7 2°52.82 17.3063 0.052169 0.282377 -3.020363
2011-09-09 12:49:37 51°16.524 2°52.966 17.284 0.051963 0.282441 -3.020363
2011-09-09 12:50:38 51°16.339 2°53.11 17.2931 0.051758 0.28204 -3.020363
2011-09-09 12:51:37 51°16.16 2°53.246 17.3192 0.051655 0.282001 -3.020363
2011-09-09 12:52:38 51°15.973 2°53.379 17.3551 0.051449 0.281514 -3.020363
2011-09-09 12:53:37 51°15.795 2°53.523 17.3933 0.051347 0.281694 -3.020363
2011-09-09 12:54:38 51°15.616 2°53.689 17.422 0.051141 0.28123 -3.020363
2011-09-09 12:55:37 51°15.458 2°53.889 17.4409 0.051038 0.281326 -3.020363
2011-09-09 12:56:38 51°15.291 2°54.092 17.4477 0.050935 0.281196 -3.020363
2011-09-09 12:57:39 51°15.127 2°54.295 17.8214 0.050935 0.281352 -3.020363
2011-09-09 12:58:38 51°14.967 2°54.487 17.8794 0.050935 0.281307 -3.020363
2011-09-09 12:59:39 51°14.806 2°54.688 17.9498 0.051038 0.28191 -3.020363
2011-09-09 13:00:39 51°14.648 2°54.891 18.024 0.051244 0.283065 -3.020363
2011-09-09 13:01:37 51°14.492 2°55.072 18.108 0.051449 0.284225 -3.020363
2011-09-09 13:02:38 51°14.324 2°55.236 18.1673 0.051655 0.285386 -3.020363
2011-09-09 13:03:39 51°14.168 2°55.376 18.2311 0.051861 0.286531 -3.020363
2011-09-09 13:04:40 51°14.043 2°55.471 18.2679 0.052066 0.287651 -3.020363
2011-09-09 13:05:39 51°13.934 2°55.554 18.3348 0.052375 0.289364 -3.020363
2011-09-09 13:06:38 51°13.839 2°55.623 18.3858 0.052683 0.291082 -3.020363
2011-09-09 13:07:39 51°13.757 2°55.718 18.4845 0.052889 0.292222 -3.020363
2011-09-09 13:08:38 51°13.697 2°55.825 18.5113 0.053094 0.293368 -3.020363
2011-09-09 13:09:38 51°13.655 2°55.929 18.5727 0.0533 0.294509 -3.020363
2011-09-09 13:10:39 51°13.637 2°56.01 18.6508 0.053403 0.295076 -3.020363
2011-09-09 13:11:38 51°13.635 2°56.016 18.7352 0.053609 0.296222 -3.020363